Time;durP1;ratioP1;P1;durP2;ratioP2;P2;SDS_P1;SDS_P2;PMS_P1;PMS_P2;Temp;Humidity;BMP_temperature;BMP_pressure;BME280_temperature;BME280_humidity;BME280_pressure;Samples;Min_cycle;Max_cycle;Signal;HPM_P1;HPM_P2
2021/10/28 00:17:00;;;;;;;10.20;8.10;;;;;;;12.01;70.57;100715.25;226990;1200;140142;-68
2021/10/28 00:22:15;;;;;;;11.20;7.50;;;;;;;12.07;70.78;100713.84;227393;1200;139614;-68
2021/10/28 00:27:56;;;;;;;;;;;;;;;;;;;;;
2021/10/28 00:33:14;;;;;;;;;;;;;;;;;;;;;
2021/10/28 00:38:27;;;;;;;12.70;7.30;;;;;;;12.15;70.80;100711.48;226382;1200;140541;-67
2021/10/28 00:43:33;;;;;;;11.20;9.20;;;;;;;12.16;70.88;100708.95;225811;1202;140253;-70
2021/10/28 00:48:41;;;;;;;6.80;6.10;;;;;;;12.19;70.81;100709.08;226821;1201;140928;-70
2021/10/28 00:53:53;;;;;;;13.80;8.80;;;;;;;12.09;70.67;100706.59;226477;1200;139942;-69
2021/10/28 00:59:24;;;;;;;7.90;6.90;;;;;;;12.06;70.96;100701.96;226120;1200;139862;-70
2021/10/28 01:04:31;;;;;;;8.50;7.20;;;;;;;12.09;71.07;100697.34;227043;1200;140146;-70
2021/10/28 01:10:11;;;;;;;10.40;7.50;;;;;;;12.05;70.88;100697.91;226250;1200;140157;-66
2021/10/28 01:15:35;;;;;;;8.90;7.50;;;;;;;12.04;71.15;100695.78;227499;1200;139896;-66
2021/10/28 01:20:43;;;;;;;14.10;8.30;;;;;;;12.04;71.07;100692.85;226694;1201;141466;-68
2021/10/28 01:26:18;;;;;;;8.90;7.80;;;;;;;12.06;70.94;100687.95;227567;1200;141166;-68
2021/10/28 01:31:45;;;;;;;9.30;7.90;;;;;;;12.01;71.07;100686.63;226391;1201;140962;-70
2021/10/28 01:37:01;;;;;;;;;;;;;;;;;;;;;
2021/10/28 01:42:10;;;;;;;9.30;8.00;;;;;;;11.96;70.90;100682.86;226976;1200;139574;-68
2021/10/28 01:47:46;;;;;;;9.60;8.30;;;;;;;11.98;70.81;100680.79;226324;1201;140667;-68
2021/10/28 01:52:55;;;;;;;10.90;7.70;;;;;;;12.00;71.01;100681.55;226886;1200;139646;-69
2021/10/28 01:58:33;;;;;;;8.20;7.00;;;;;;;11.99;71.04;100683.56;227186;1201;139919;-69
2021/10/28 02:03:38;;;;;;;13.20;7.70;;;;;;;11.97;71.06;100684.41;228849;1200;139476;-70
2021/10/28 02:09:09;;;;;;;9.70;6.60;;;;;;;11.96;70.92;100679.52;228987;1200;142549;-69
2021/10/28 02:14:56;;;;;;;13.40;7.50;;;;;;;12.00;71.00;100677.11;228719;1200;140202;-70
2021/10/28 02:20:27;;;;;;;;;;;;;;;;;;;;;
2021/10/28 02:26:01;;;;;;;10.60;7.30;;;;;;;12.00;71.11;100671.02;226171;1200;139253;-69
2021/10/28 02:31:14;;;;;;;7.20;6.40;;;;;;;12.00;70.89;100673.70;226846;1200;140071;-71
2021/10/28 02:36:36;;;;;;;9.40;8.00;;;;;;;11.99;70.92;100673.62;226465;1200;141240;-70
2021/10/28 02:42:12;;;;;;;9.70;7.00;;;;;;;11.97;71.17;100679.31;227214;1200;140554;-69
2021/10/28 02:47:18;;;;;;;7.60;6.90;;;;;;;11.95;71.16;100686.68;226450;1201;139734;-68
2021/10/28 02:52:46;;;;;;;8.60;7.60;;;;;;;11.95;71.47;100686.85;226758;1200;139324;-69
2021/10/28 02:58:00;;;;;;;13.10;8.30;;;;;;;11.97;71.28;100681.29;226517;1200;141882;-68
2021/10/28 03:03:05;;;;;;;9.90;7.90;;;;;;;11.95;71.29;100689.20;226162;1200;139644;-70
2021/10/28 03:08:22;;;;;;;;;;;;;;;;;;;;;
2021/10/28 03:13:38;;;;;;;14.60;7.60;;;;;;;11.86;71.40;100695.67;226534;1200;140124;-70
2021/10/28 03:30:25;;;;;;;13.50;10.00;;;;;;;11.82;71.56;100699.57;227859;1200;139367;-68
2021/10/28 03:35:43;;;;;;;;;;;;;;;;;;;;;
2021/10/28 03:46:49;;;;;;;14.30;11.30;;;;;;;11.78;71.68;100718.09;227132;1200;141750;-71
2021/10/28 03:57:48;;;;;;;16.90;11.80;;;;;;;11.75;71.74;100726.11;227829;1192;139422;-69
2021/10/28 04:30:43;;;;;;;17.70;12.60;;;;;;;11.73;71.63;100733.91;226201;1200;141033;-70
2021/10/28 04:36:05;;;;;;;17.50;12.50;;;;;;;11.68;71.83;100731.23;227751;1200;140128;-70
2021/10/28 04:41:27;;;;;;;18.70;13.20;;;;;;;11.64;71.73;100734.39;226480;1200;140321;-68
2021/10/28 04:46:50;;;;;;;19.50;14.20;;;;;;;11.62;71.85;100735.25;226584;1200;141167;-69
2021/10/28 04:52:21;;;;;;;20.20;13.20;;;;;;;11.58;71.83;100730.08;227545;1200;141181;-69
2021/10/28 04:57:40;;;;;;;;;;;;;;;;;;;;;
2021/10/28 05:02:54;;;;;;;22.60;16.10;;;;;;;11.54;71.83;100731.25;226228;1200;141355;-70
2021/10/28 05:08:02;;;;;;;25.50;17.30;;;;;;;11.51;72.11;100737.80;226483;1200;142262;-69
2021/10/28 05:13:11;;;;;;;28.10;16.40;;;;;;;11.50;71.95;100744.53;226301;1200;141208;-69
2021/10/28 05:18:38;;;;;;;;;;;;;;;;;;;;;
2021/10/28 05:24:08;;;;;;;24.40;15.50;;;;;;;11.40;71.99;100755.77;227731;1200;140667;-68
2021/10/28 05:29:14;;;;;;;22.70;15.50;;;;;;;11.39;72.03;100759.95;226338;1200;142691;-69
2021/10/28 05:34:19;;;;;;;22.90;16.20;;;;;;;11.38;72.01;100761.94;226886;1200;141025;-69
2021/10/28 05:39:26;;;;;;;25.10;18.10;;;;;;;11.35;72.07;100767.50;226749;1200;140666;-69
2021/10/28 05:44:55;;;;;;;29.30;16.80;;;;;;;11.32;72.07;100772.58;226600;1201;141388;-69
2021/10/28 05:50:13;;;;;;;25.30;17.50;;;;;;;11.31;72.22;100773.41;226205;1200;142263;-70
2021/10/28 05:55:18;;;;;;;27.10;15.50;;;;;;;11.29;72.22;100775.44;229312;1200;140416;-71
2021/10/28 06:00:24;;;;;;;29.90;17.40;;;;;;;11.24;72.10;100771.81;229187;1200;140607;-71
2021/10/28 06:05:54;;;;;;;;;;;;;;;;;;;;;
2021/10/28 06:10:59;;;;;;;23.90;18.10;;;;;;;11.06;71.58;100772.09;229162;1200;141486;-71
2021/10/28 06:16:13;;;;;;;34.00;20.30;;;;;;;10.99;71.88;100773.28;228753;1200;140716;-69
2021/10/28 06:21:57;;;;;;;;;;;;;;;;;;;;;
2021/10/28 06:27:28;;;;;;;32.30;19.60;;;;;;;10.92;72.02;100778.04;226566;1201;140051;-69
2021/10/28 06:33:30;;;;;;;32.30;19.70;;;;;;;10.92;72.01;100780.70;227341;1202;140356;-72
2021/10/28 06:38:52;;;;;;;32.00;21.80;;;;;;;10.91;71.82;100789.33;226256;1202;140428;-72
2021/10/28 06:44:41;;;;;;;33.80;21.70;;;;;;;10.90;72.01;100791.46;226289;1202;139867;-70
2021/10/28 06:50:04;;;;;;;37.10;22.70;;;;;;;10.88;71.98;100794.51;225733;1201;140594;-70
2021/10/28 06:56:41;;;;;;;34.00;21.70;;;;;;;10.94;71.94;100797.81;226034;1202;141336;-67
2021/10/28 07:06:45;;;;;;;32.20;21.90;;;;;;;11.21;72.08;100812.10;226046;1200;140278;-69
2021/10/28 07:13:07;;;;;;;33.70;22.50;;;;;;;11.32;71.86;100808.59;226010;1201;140312;-67
2021/10/28 08:18:59;;;;;;;23.60;16.10;;;;;;;12.30;69.99;100804.11;227127;1200;139808;-70
2021/10/28 08:29:55;;;;;;;27.90;20.80;;;;;;;12.57;69.75;100797.01;227494;1200;140824;-70
2021/10/28 08:34:36;;;;;;;28.40;19.70;;;;;;;12.74;69.47;100790.69;228701;1200;142451;-70
2021/10/28 08:40:14;;;;;;;29.60;19.40;;;;;;;12.87;69.46;100790.27;227671;1200;141553;-71
2021/10/28 08:45:33;;;;;;;24.40;18.20;;;;;;;13.07;69.27;100782.80;226625;1200;139862;-68
2021/10/28 08:50:52;;;;;;;31.60;18.50;;;;;;;13.21;69.09;100778.91;226386;1195;139930;-68
2021/10/28 08:56:18;;;;;;;26.60;19.10;;;;;;;13.36;68.96;100779.02;226933;1200;140950;-68
2021/10/28 09:25:12;;;;;;;24.30;18.50;;;;;;;14.11;67.96;100761.24;225692;1205;141002;-69
2021/10/28 09:47:46;;;;;;;15.50;12.40;;;;;;;14.80;66.70;100761.23;227303;1200;140795;-69
2021/10/28 09:53:54;;;;;;;15.00;12.60;;;;;;;14.95;66.50;100758.86;227370;1200;140229;-70
2021/10/28 09:59:04;;;;;;;14.90;10.90;;;;;;;15.12;66.07;100757.14;226475;1200;141010;-69
2021/10/28 10:04:30;;;;;;;18.50;13.50;;;;;;;15.07;65.55;100752.36;226581;1200;141455;-70
2021/10/28 10:10:41;;;;;;;13.20;11.90;;;;;;;15.08;65.60;100749.39;227497;1200;140307;-70
2021/10/28 10:16:02;;;;;;;19.70;14.20;;;;;;;15.19;65.47;100740.84;228797;1195;140807;-71
2021/10/28 10:21:22;;;;;;;20.40;12.40;;;;;;;15.34;65.54;100733.48;228656;1202;139877;-70
2021/10/28 10:28:14;;;;;;;14.80;11.60;;;;;;;15.55;65.07;100726.77;227890;1202;139868;-71
2021/10/28 11:21:02;;;;;;;15.10;12.40;;;;;;;16.99;62.25;100694.08;226191;1200;140317;-70
2021/10/28 12:17:41;;;;;;;;;;;;;;;;;;;;;
2021/10/28 12:53:11;;;;;;;12.10;8.30;;;;;;;17.10;59.02;100625.55;226481;1200;142915;-70
2021/10/28 13:48:17;;;;;;;11.60;8.90;;;;;;;16.63;58.21;100593.98;226336;1201;139936;-70
2021/10/28 13:59:24;;;;;;;9.40;7.80;;;;;;;16.50;58.11;100596.31;226695;1203;139847;-69
2021/10/28 15:33:36;;;;;;;10.90;7.60;;;;;;;13.21;62.59;100565.05;226422;1201;140601;-68
2021/10/28 16:24:06;;;;;;;36.40;18.60;;;;;;;11.03;64.73;100543.98;227968;1200;140782;-68
2021/10/28 16:29:13;;;;;;;35.90;18.60;;;;;;;10.87;65.13;100544.15;228586;1200;140278;-68
2021/10/28 16:34:27;;;;;;;38.40;22.90;;;;;;;10.67;65.54;100542.36;228758;1200;141455;-69
2021/10/28 16:39:33;;;;;;;47.00;26.10;;;;;;;10.47;65.72;100539.08;226670;1200;140430;-69
2021/10/28 16:44:44;;;;;;;56.70;26.70;;;;;;;10.35;65.89;100543.67;226764;1200;141035;-70
2021/10/28 16:50:33;;;;;;;41.90;22.00;;;;;;;10.16;65.95;100544.14;227190;1201;140374;-69
2021/10/28 16:55:37;;;;;;;39.00;23.20;;;;;;;9.90;66.18;100541.38;226345;1201;139728;-70
2021/10/28 17:00:56;;;;;;;;;;;;;;;;;;;;;
2021/10/28 17:06:07;;;;;;;34.20;21.90;;;;;;;9.57;66.89;100550.60;226409;1200;141032;-69
2021/10/28 17:11:16;;;;;;;50.50;24.90;;;;;;;9.48;66.98;100552.95;227051;1200;141102;-70
2021/10/28 17:16:32;;;;;;;26.00;19.90;;;;;;;9.36;67.00;100550.90;226557;1202;141803;-69
2021/10/28 17:21:51;;;;;;;33.30;20.40;;;;;;;9.28;67.58;100555.81;226075;1200;140739;-68
2021/10/28 17:27:24;;;;;;;;;;;;;;;;;;;;;
2021/10/28 17:32:54;;;;;;;39.60;25.40;;;;;;;8.99;67.82;100551.08;226428;1201;139833;-65
2021/10/28 17:38:00;;;;;;;45.40;25.30;;;;;;;8.92;68.45;100554.54;227585;1200;140648;-69
2021/10/28 17:43:11;;;;;;;61.80;30.50;;;;;;;8.86;68.36;100548.95;227441;1201;141342;-69
2021/10/28 17:48:57;;;;;;;74.30;35.60;;;;;;;8.85;68.80;100548.42;226378;1200;139868;-68
2021/10/28 17:54:34;;;;;;;;;;;;;;;;;;;;;
2021/10/28 17:59:42;;;;;;;54.40;28.40;;;;;;;8.88;69.30;100551.67;225987;1201;143290;-67
2021/10/28 18:04:59;;;;;;;45.00;28.20;;;;;;;8.90;69.80;100547.14;226093;1201;142404;-68
2021/10/28 18:10:06;;;;;;;52.30;28.00;;;;;;;8.96;69.99;100543.37;228685;1200;141143;-68
2021/10/28 18:15:12;;;;;;;47.90;31.50;;;;;;;8.95;70.15;100537.04;229121;1200;140011;-69
2021/10/28 18:20:20;;;;;;;48.50;30.70;;;;;;;8.96;70.41;100531.80;228866;1200;140082;-68
2021/10/28 18:25:26;;;;;;;45.60;30.80;;;;;;;9.04;70.53;100528.09;229062;1200;140341;-68
2021/10/28 18:30:35;;;;;;;59.60;32.10;;;;;;;9.13;70.49;100525.35;228986;1200;140026;-68
2021/10/28 18:35:52;;;;;;;50.50;31.60;;;;;;;9.21;70.68;100518.92;227604;1200;142891;-70
2021/10/28 18:41:11;;;;;;;46.10;28.80;;;;;;;9.29;70.94;100516.67;227027;1200;141437;-66
2021/10/28 18:46:38;;;;;;;;;;;;;;;9.34;70.87;100512.95;227891;1200;139539;-69
2021/10/28 18:52:17;;;;;;;;;;;;;;;;;;;;;
2021/10/28 18:57:25;;;;;;;48.30;30.00;;;;;;;9.34;70.63;100506.39;226956;1200;140138;-68
2021/10/28 19:03:05;;;;;;;;;;;;;;;;;;;;;
2021/10/28 19:08:36;;;;;;;63.90;36.20;;;;;;;9.22;71.01;100506.73;226864;1200;139864;-68
2021/10/28 19:13:44;;;;;;;52.40;31.30;;;;;;;9.17;71.16;100511.34;227292;1200;140598;-69
2021/10/28 19:18:49;;;;;;;53.80;33.90;;;;;;;9.16;71.34;100509.34;227243;1200;141995;-69
2021/10/28 19:24:27;;;;;;;55.70;33.90;;;;;;;9.09;71.25;100506.73;226292;1200;140362;-69
2021/10/28 19:29:54;;;;;;;;;;;;;;;;;;;;;
2021/10/28 19:35:21;;;;;;;49.50;30.80;;;;;;;9.00;71.59;100499.53;226863;1200;142524;-71
2021/10/28 19:46:22;;;;;;;45.80;29.00;;;;;;;8.96;71.90;100491.51;225330;1203;151460;-68
2021/10/28 19:51:38;;;;;;;46.80;31.40;;;;;;;9.00;72.13;100491.91;227027;1200;140678;-68
2021/10/28 19:56:46;;;;;;;54.90;33.40;;;;;;;9.03;72.24;100488.84;226865;1200;139692;-69
2021/10/28 20:01:55;;;;;;;65.00;35.90;;;;;;;9.05;72.24;100493.48;228917;1200;140573;-68
2021/10/28 20:07:10;;;;;;;51.40;32.00;;;;;;;9.07;72.13;100491.50;227357;1200;140286;-68
2021/10/28 20:23:05;;;;;;;51.30;31.00;;;;;;;9.08;72.11;100489.58;228941;1200;161570;-67
2021/10/28 20:28:20;;;;;;;51.20;29.80;;;;;;;9.10;72.18;100489.66;228832;1200;140668;-67
2021/10/28 20:33:28;;;;;;;48.90;32.20;;;;;;;9.13;72.10;100490.89;228190;1200;141075;-68
2021/10/28 20:38:32;;;;;;;47.90;29.50;;;;;;;9.14;72.21;100486.67;227201;1200;139557;-69
2021/10/28 20:43:37;;;;;;;58.50;30.90;;;;;;;9.10;72.25;100481.80;228747;1200;139451;-64
2021/10/28 20:48:55;;;;;;;46.70;28.40;;;;;;;9.05;72.09;100478.24;227213;1200;140280;-64
2021/10/28 20:54:01;;;;;;;48.80;29.60;;;;;;;8.99;72.00;100479.64;227525;1200;140771;-69
2021/10/28 20:59:11;;;;;;;48.70;29.90;;;;;;;8.90;72.02;100471.98;227439;1200;141670;-67
2021/10/28 21:05:09;;;;;;;;;;;;;;;;;;;;;
2021/10/28 21:10:17;;;;;;;45.10;28.90;;;;;;;8.63;72.14;100470.16;227294;1200;142086;-67
2021/10/28 21:15:32;;;;;;;43.30;30.80;;;;;;;8.54;72.26;100461.58;226967;1200;139766;-69
2021/10/28 21:20:40;;;;;;;48.60;29.40;;;;;;;8.44;72.44;100458.95;227056;1200;139532;-68
2021/10/28 21:25:57;;;;;;;48.50;29.70;;;;;;;8.37;72.36;100456.23;227430;1200;140689;-68
2021/10/28 21:31:34;;;;;;;;;;;;;;;;;;;;;
2021/10/28 21:36:44;;;;;;;39.70;28.10;;;;;;;8.29;72.54;100457.98;226890;1200;141192;-70
2021/10/28 21:41:49;;;;;;;45.10;29.40;;;;;;;8.24;72.61;100454.04;227859;1200;140327;-67
2021/10/28 21:47:16;;;;;;;49.30;30.90;;;;;;;8.17;72.80;100453.78;227702;1200;141452;-67
2021/10/28 21:53:20;;;;;;;51.90;29.30;;;;;;;8.10;72.55;100455.52;226374;1193;141311;-69
2021/10/28 22:26:21;;;;;;;58.90;28.20;;;;;;;7.89;73.31;100440.84;228931;1201;140822;-68
2021/10/28 22:31:26;;;;;;;48.10;29.70;;;;;;;7.82;73.23;100438.81;229179;1200;140348;-67
2021/10/28 22:36:39;;;;;;;53.10;31.70;;;;;;;7.78;73.52;100429.83;226956;1201;141277;-67
2021/10/28 22:41:52;;;;;;;42.60;29.50;;;;;;;7.72;73.46;100427.70;228150;1200;140508;-67
2021/10/28 22:46:57;;;;;;;41.60;27.40;;;;;;;7.67;73.35;100422.05;227449;1200;144000;-67
2021/10/28 22:52:26;;;;;;;44.50;26.10;;;;;;;7.67;73.64;100417.81;226801;1200;140323;-68
2021/10/28 23:03:25;;;;;;;43.80;27.10;;;;;;;7.62;73.83;100409.95;227710;1200;142283;-69
2021/10/28 23:14:26;;;;;;;41.90;28.00;;;;;;;7.66;73.96;100404.50;227511;1200;140407;-68
2021/10/28 23:25:27;;;;;;;43.40;27.30;;;;;;;7.61;73.93;100398.75;226469;1200;140928;-67
2021/10/28 23:30:41;;;;;;;40.70;26.20;;;;;;;7.56;73.70;100395.17;228081;1200;140472;-68
2021/10/28 23:35:53;;;;;;;36.60;25.80;;;;;;;7.46;74.09;100391.01;227387;1200;140385;-67
2021/10/28 23:41:03;;;;;;;38.30;26.00;;;;;;;7.42;74.01;100389.89;226606;1200;140827;-67
2021/10/28 23:46:40;;;;;;;38.80;27.80;;;;;;;7.38;73.99;100391.63;226268;1200;140555;-66
2021/10/28 23:51:48;;;;;;;43.30;28.30;;;;;;;7.35;73.84;100387.33;227177;1200;231715;-67
2021/10/28 23:56:55;;;;;;;44.50;28.20;;;;;;;7.32;74.26;100385.37;226505;1200;142041;-67
